Time;durP1;ratioP1;P1;durP2;ratioP2;P2;SDS_P1;SDS_P2;PMS_P1;PMS_P2;Temp;Humidity;BMP_temperature;BMP_pressure;BME280_temperature;BME280_humidity;BME280_pressure;Samples;Min_cycle;Max_cycle;Signal;HPM_P1;HPM_P2
2023/05/31 00:01:35;;;;;;;13.63;7.88;;;;;;;12.47;100.00;101653.75;6251000;28;20076;-89
2023/05/31 00:04:37;;;;;;;10.68;7.03;;;;;;;12.43;100.00;101663.53;6271946;28;20041;-89
2023/05/31 00:07:39;;;;;;;11.15;6.95;;;;;;;12.38;100.00;101670.81;6244492;28;20069;-89
2023/05/31 00:10:41;;;;;;;9.70;6.72;;;;;;;12.40;100.00;101665.53;6245375;28;20045;-89
2023/05/31 00:13:46;;;;;;;10.43;7.30;;;;;;;12.33;100.00;101659.91;6242795;28;20480;-89
2023/05/31 00:16:48;;;;;;;10.88;6.60;;;;;;;12.27;100.00;101668.94;6231383;28;20048;-89
2023/05/31 00:20:10;;;;;;;11.90;6.95;;;;;;;12.14;100.00;101673.28;6226782;28;20045;-89
2023/05/31 00:23:12;;;;;;;10.90;7.00;;;;;;;12.04;100.00;101665.28;6247968;28;20368;-89
2023/05/31 00:26:14;;;;;;;10.73;6.93;;;;;;;11.97;100.00;101671.81;6246216;28;20539;-89
2023/05/31 00:29:17;;;;;;;11.50;7.32;;;;;;;11.93;100.00;101678.16;6239561;28;20040;-89
2023/05/31 00:32:19;;;;;;;12.55;8.00;;;;;;;11.92;100.00;101675.66;6242400;28;20084;-89
2023/05/31 00:35:21;;;;;;;11.63;7.00;;;;;;;11.85;100.00;101672.63;6247117;28;20072;-89
2023/05/31 00:38:23;;;;;;;12.50;7.38;;;;;;;11.84;100.00;101669.19;6243197;28;20387;-90
2023/05/31 00:41:25;;;;;;;9.75;6.40;;;;;;;11.82;100.00;101667.63;6245264;28;20444;-89
2023/05/31 00:44:27;;;;;;;12.40;7.45;;;;;;;11.69;100.00;101667.59;6207237;28;20441;-89
2023/05/31 00:47:29;;;;;;;13.77;7.80;;;;;;;11.61;100.00;101667.28;6261889;28;20505;-89
2023/05/31 00:50:31;;;;;;;12.57;7.40;;;;;;;11.60;100.00;101670.78;6249817;28;20401;-89
2023/05/31 00:53:33;;;;;;;12.23;7.93;;;;;;;11.57;100.00;101670.97;6242541;28;20033;-89
2023/05/31 00:56:36;;;;;;;13.40;7.82;;;;;;;11.47;100.00;101670.75;6246644;28;20034;-89
2023/05/31 00:59:38;;;;;;;12.48;7.65;;;;;;;11.41;100.00;101677.16;6242795;28;20424;-89
2023/05/31 01:02:41;;;;;;;11.15;7.47;;;;;;;11.38;100.00;101686.91;6251166;28;20038;-89
2023/05/31 01:05:44;;;;;;;11.02;7.03;;;;;;;11.34;100.00;101683.66;6260147;28;20446;-89
2023/05/31 01:08:46;;;;;;;13.25;7.97;;;;;;;11.34;100.00;101669.88;6251504;28;20188;-89
2023/05/31 01:12:03;;;;;;;11.15;7.68;;;;;;;11.30;100.00;101669.22;6225661;28;20057;-89
2023/05/31 01:15:25;;;;;;;13.02;8.20;;;;;;;11.22;100.00;101674.06;6237951;28;20045;-89
2023/05/31 01:18:54;;;;;;;12.32;8.23;;;;;;;11.28;100.00;101675.44;6244207;28;20041;-89
2023/05/31 01:22:17;;;;;;;14.40;7.95;;;;;;;11.28;100.00;101675.44;6263100;28;20488;-89
2023/05/31 01:25:27;;;;;;;12.55;8.02;;;;;;;11.28;100.00;101673.69;6247839;28;20040;-89
2023/05/31 01:28:33;;;;;;;10.35;8.00;;;;;;;11.25;100.00;101673.03;6251490;28;20056;-89
2023/05/31 01:31:37;;;;;;;11.85;8.40;;;;;;;11.26;100.00;101672.13;6246758;28;20049;-89
2023/05/31 01:34:43;;;;;;;14.77;8.40;;;;;;;11.20;100.00;101678.50;6223712;28;20046;-89
2023/05/31 01:37:45;;;;;;;11.95;8.85;;;;;;;11.19;100.00;101674.28;6248081;28;20537;-89
2023/05/31 01:40:48;;;;;;;12.13;8.63;;;;;;;11.16;100.00;101685.66;6252201;28;20045;-89
2023/05/31 01:43:52;;;;;;;13.32;8.40;;;;;;;11.19;100.00;101688.06;6263689;28;20068;-89
2023/05/31 01:46:54;;;;;;;13.70;8.63;;;;;;;11.20;100.00;101681.09;6232900;28;20107;-89
2023/05/31 01:49:58;;;;;;;13.98;8.70;;;;;;;11.13;100.00;101683.28;6260246;28;20042;-89
2023/05/31 01:53:00;;;;;;;12.60;8.50;;;;;;;11.12;100.00;101676.41;6246928;28;20238;-89
2023/05/31 01:56:05;;;;;;;20.42;8.73;;;;;;;11.09;100.00;101686.16;6238435;28;20351;-89
2023/05/31 01:59:07;;;;;;;12.23;8.25;;;;;;;11.05;100.00;101679.47;6253631;28;20559;-89
2023/05/31 02:02:10;;;;;;;12.48;8.38;;;;;;;11.07;100.00;101675.03;6248155;28;20045;-89
2023/05/31 02:05:13;;;;;;;12.63;8.38;;;;;;;11.07;100.00;101673.28;6248338;28;20136;-89
2023/05/31 02:08:15;;;;;;;13.02;8.50;;;;;;;11.09;100.00;101666.25;6229799;28;20044;-89
2023/05/31 02:11:16;;;;;;;11.80;8.18;;;;;;;11.07;100.00;101662.09;6249391;28;20419;-89
2023/05/31 02:14:18;;;;;;;12.85;8.30;;;;;;;11.05;100.00;101662.16;6251232;28;20079;-89
2023/05/31 02:17:23;;;;;;;15.63;8.90;;;;;;;11.02;100.00;101664.13;6249184;28;20152;-89
2023/05/31 02:20:25;;;;;;;15.70;9.02;;;;;;;11.00;100.00;101664.22;6251970;28;20136;-89
2023/05/31 02:23:27;;;;;;;14.40;9.48;;;;;;;11.02;100.00;101661.53;6245456;28;20107;-89
2023/05/31 02:26:29;;;;;;;13.90;8.73;;;;;;;11.03;100.00;101670.97;6248295;28;20049;-89
2023/05/31 02:29:32;;;;;;;14.60;8.50;;;;;;;11.01;100.00;101667.66;6236136;28;20045;-89
2023/05/31 02:32:41;;;;;;;12.05;8.15;;;;;;;10.95;100.00;101669.69;6244445;28;20044;-89
2023/05/31 02:35:43;;;;;;;15.50;9.48;;;;;;;10.99;100.00;101665.16;6255554;28;20071;-89
2023/05/31 02:38:45;;;;;;;16.33;8.98;;;;;;;10.90;100.00;101660.53;6245464;28;20052;-89
2023/05/31 02:41:47;;;;;;;15.85;8.95;;;;;;;10.88;100.00;101665.84;6246220;28;20430;-89
2023/05/31 02:44:48;;;;;;;12.13;8.38;;;;;;;10.87;100.00;101668.50;6244784;28;20792;-89
2023/05/31 02:47:51;;;;;;;14.93;8.73;;;;;;;10.84;100.00;101659.16;6245768;28;20507;-89
2023/05/31 02:50:52;;;;;;;12.60;9.05;;;;;;;10.77;100.00;101650.13;6242425;28;20407;-89
2023/05/31 02:54:09;;;;;;;15.45;9.63;;;;;;;10.80;100.00;101649.91;6230181;28;20057;-89
2023/05/31 02:57:12;;;;;;;12.65;8.85;;;;;;;10.85;100.00;101652.22;6249549;28;20050;-89
2023/05/31 03:00:14;;;;;;;13.70;8.93;;;;;;;10.84;100.00;101645.41;6240448;28;20041;-89
2023/05/31 03:03:18;;;;;;;14.25;9.27;;;;;;;10.86;100.00;101652.16;6246721;28;20049;-89
2023/05/31 03:06:33;;;;;;;16.00;9.20;;;;;;;10.93;100.00;101655.16;6257196;28;20114;-89
2023/05/31 03:09:36;;;;;;;16.77;8.80;;;;;;;10.93;100.00;101650.84;6240424;28;20068;-89
2023/05/31 03:12:39;;;;;;;14.52;9.20;;;;;;;10.91;100.00;101655.28;6237851;28;20077;-89
2023/05/31 03:15:41;;;;;;;14.95;9.38;;;;;;;10.93;100.00;101648.25;6246944;28;20087;-89
2023/05/31 03:18:43;;;;;;;16.45;9.25;;;;;;;10.91;100.00;101652.69;6242891;28;20569;-89
2023/05/31 03:21:45;;;;;;;15.20;9.43;;;;;;;10.90;100.00;101656.19;6246163;28;20037;-89
2023/05/31 03:24:47;;;;;;;17.13;9.45;;;;;;;10.86;100.00;101654.72;6245322;28;20111;-89
2023/05/31 03:27:51;;;;;;;16.98;9.48;;;;;;;10.89;100.00;101654.53;6247487;28;20045;-89
2023/05/31 03:30:53;;;;;;;15.35;8.70;;;;;;;10.88;100.00;101663.25;6234077;28;20057;-89
2023/05/31 03:33:56;;;;;;;15.52;8.82;;;;;;;10.89;100.00;101661.47;6249358;28;20041;-89
2023/05/31 03:36:57;;;;;;;14.07;8.80;;;;;;;10.86;100.00;101659.09;6248624;28;20037;-89
2023/05/31 03:40:15;;;;;;;13.60;8.90;;;;;;;10.77;100.00;101656.13;6250274;28;20143;-89
2023/05/31 03:43:17;;;;;;;13.40;8.63;;;;;;;10.74;100.00;101650.31;6247285;28;20218;-89
2023/05/31 03:46:20;;;;;;;14.18;8.65;;;;;;;10.69;100.00;101657.53;6246646;28;20045;-89
2023/05/31 03:49:23;;;;;;;13.38;8.90;;;;;;;10.69;100.00;101662.72;6247743;28;20423;-89
2023/05/31 03:52:24;;;;;;;13.25;8.48;;;;;;;10.62;100.00;101658.81;6243009;28;20547;-89
2023/05/31 03:55:26;;;;;;;15.50;8.95;;;;;;;10.60;100.00;101648.56;6247082;28;20041;-89
2023/05/31 03:58:28;;;;;;;13.48;8.20;;;;;;;10.59;100.00;101653.84;6244558;28;20049;-89
2023/05/31 04:01:32;;;;;;;14.13;8.77;;;;;;;10.55;100.00;101653.19;6244943;28;20048;-89
2023/05/31 04:04:34;;;;;;;14.68;8.32;;;;;;;10.53;100.00;101653.28;6242110;28;20045;-89
2023/05/31 04:07:37;;;;;;;16.02;8.60;;;;;;;10.56;100.00;101652.28;6243094;28;20042;-89
2023/05/31 04:10:40;;;;;;;11.77;7.90;;;;;;;10.56;100.00;101647.91;6238583;28;20045;-89
2023/05/31 04:13:42;;;;;;;11.88;8.75;;;;;;;10.57;100.00;101652.16;6247629;28;20041;-88
2023/05/31 04:16:44;;;;;;;12.70;8.82;;;;;;;10.63;100.00;101655.31;6247525;28;20286;-88
2023/05/31 04:19:48;;;;;;;15.30;8.85;;;;;;;10.61;100.00;101649.38;6206614;28;20053;-89
2023/05/31 04:22:50;;;;;;;11.18;7.93;;;;;;;10.67;100.00;101651.59;6246306;28;20077;-89
2023/05/31 04:25:52;;;;;;;12.68;8.85;;;;;;;10.72;100.00;101652.16;6247112;28;20044;-89
2023/05/31 04:28:54;;;;;;;13.73;8.45;;;;;;;10.74;100.00;101642.53;6256561;28;20120;-89
2023/05/31 04:31:57;;;;;;;15.45;8.43;;;;;;;10.75;100.00;101657.97;6227058;28;20695;-89
2023/05/31 04:35:03;;;;;;;14.25;8.60;;;;;;;10.81;100.00;101651.59;6258212;28;20049;-89
2023/05/31 04:38:11;;;;;;;17.30;9.43;;;;;;;10.86;100.00;101649.56;6239899;28;20044;-89
2023/05/31 04:41:16;;;;;;;16.80;9.68;;;;;;;10.86;100.00;101653.91;6247904;28;20049;-89
2023/05/31 04:44:18;;;;;;;16.30;9.38;;;;;;;10.99;100.00;101654.78;6244676;28;20124;-89
2023/05/31 04:47:31;;;;;;;15.23;9.00;;;;;;;11.00;100.00;101656.44;6238077;28;20129;-89
2023/05/31 04:50:34;;;;;;;18.25;9.45;;;;;;;11.02;100.00;101659.78;6200585;28;20053;-89
2023/05/31 04:53:37;;;;;;;14.88;9.40;;;;;;;11.04;100.00;101657.94;6239391;28;20046;-89
2023/05/31 04:56:41;;;;;;;12.65;8.57;;;;;;;11.10;100.00;101661.88;6247664;28;20266;-89
2023/05/31 04:59:44;;;;;;;16.23;9.13;;;;;;;11.16;100.00;101661.50;6250825;28;20049;-89
2023/05/31 05:02:46;;;;;;;15.77;9.80;;;;;;;11.20;100.00;101658.63;6249710;28;20494;-89
2023/05/31 05:05:50;;;;;;;19.17;10.73;;;;;;;11.28;100.00;101660.75;6250270;28;20056;-89
2023/05/31 05:08:52;;;;;;;17.20;11.30;;;;;;;11.36;100.00;101657.66;6255928;28;20048;-89
2023/05/31 05:11:56;;;;;;;15.70;8.98;;;;;;;11.43;100.00;101664.13;6250076;28;20044;-90
2023/05/31 05:14:58;;;;;;;15.82;8.15;;;;;;;11.50;100.00;101669.72;6255382;28;20411;-90
2023/05/31 05:18:02;;;;;;;14.20;8.20;;;;;;;11.53;100.00;101672.97;6242545;28;20052;-89
2023/05/31 05:21:04;;;;;;;12.88;7.50;;;;;;;11.58;100.00;101678.69;6235923;28;20071;-89
2023/05/31 05:24:08;;;;;;;13.70;8.48;;;;;;;11.66;100.00;101675.59;6250525;28;20106;-89
2023/05/31 05:27:10;;;;;;;12.77;7.57;;;;;;;11.70;100.00;101673.59;6252229;28;20525;-89
2023/05/31 05:30:13;;;;;;;12.23;7.85;;;;;;;11.77;100.00;101675.69;6244839;28;20132;-89
2023/05/31 05:33:16;;;;;;;11.68;7.50;;;;;;;11.82;100.00;101672.81;6268032;28;20064;-90
2023/05/31 05:36:18;;;;;;;12.02;7.10;;;;;;;11.88;100.00;101674.22;6247878;28;20054;-89
2023/05/31 05:39:25;;;;;;;12.73;6.80;;;;;;;11.91;100.00;101669.66;6250126;28;20041;-90
2023/05/31 05:42:28;;;;;;;16.52;7.50;;;;;;;11.94;100.00;101676.41;6251495;28;20124;-89
2023/05/31 05:45:30;;;;;;;11.65;6.88;;;;;;;12.01;100.00;101675.06;6268786;28;20476;-89
2023/05/31 05:48:33;;;;;;;11.02;6.93;;;;;;;12.04;100.00;101669.66;6253011;28;20041;-90
2023/05/31 05:51:35;;;;;;;13.35;6.95;;;;;;;12.11;100.00;101673.50;6250902;28;20049;-90
2023/05/31 05:54:43;;;;;;;15.93;7.20;;;;;;;12.19;100.00;101684.19;6244431;28;20037;-90
2023/05/31 05:57:45;;;;;;;11.77;6.80;;;;;;;12.23;100.00;101671.84;6249589;28;20053;-89
2023/05/31 06:01:07;;;;;;;13.02;6.50;;;;;;;12.26;100.00;101675.06;6262255;28;20518;-90
2023/05/31 06:04:11;;;;;;;13.40;7.30;;;;;;;12.29;100.00;101672.25;6243438;28;20482;-90
2023/05/31 06:07:14;;;;;;;13.55;7.40;;;;;;;12.41;100.00;101673.19;6231354;28;20403;-90
2023/05/31 06:10:16;;;;;;;12.35;7.18;;;;;;;12.50;100.00;101667.38;6247385;28;20651;-90
2023/05/31 06:13:19;;;;;;;12.13;7.00;;;;;;;12.57;100.00;101665.19;6247560;28;20049;-90
2023/05/31 06:16:22;;;;;;;15.48;7.60;;;;;;;12.59;100.00;101665.91;6247433;28;20041;-90
2023/05/31 06:19:24;;;;;;;13.85;6.70;;;;;;;12.65;100.00;101672.44;6251863;28;20087;-90
2023/05/31 06:22:27;;;;;;;12.90;6.78;;;;;;;12.69;100.00;101672.13;6245564;28;20072;-90
2023/05/31 06:25:29;;;;;;;14.85;6.97;;;;;;;12.79;100.00;101672.31;6250317;28;20041;-90
2023/05/31 06:28:32;;;;;;;13.73;7.07;;;;;;;12.88;100.00;101669.06;6245174;28;20064;-90
2023/05/31 06:31:45;;;;;;;16.38;7.72;;;;;;;12.93;100.00;101663.53;6256637;28;20060;-90
2023/05/31 06:34:48;;;;;;;11.05;6.25;;;;;;;12.99;100.00;101657.91;6249179;28;20053;-90
2023/05/31 06:37:51;;;;;;;12.73;7.15;;;;;;;13.07;100.00;101666.00;6250714;28;20073;-90
2023/05/31 06:40:53;;;;;;;11.48;6.30;;;;;;;13.10;100.00;101659.75;6252626;28;20045;-90
2023/05/31 06:43:55;;;;;;;13.13;6.88;;;;;;;13.14;100.00;101661.19;6260514;28;20057;-90
2023/05/31 06:47:26;;;;;;;14.18;6.72;;;;;;;13.19;100.00;101660.84;6158395;28;20058;-90
2023/05/31 06:50:48;;;;;;;14.52;6.82;;;;;;;13.27;100.00;101663.78;6160335;28;20051;-90
2023/05/31 06:54:08;;;;;;;14.73;6.40;;;;;;;13.41;100.00;101663.59;6160359;28;20493;-90
2023/05/31 06:57:11;;;;;;;11.30;6.35;;;;;;;13.49;100.00;101671.69;6141339;28;20047;-90
2023/05/31 07:00:14;;;;;;;12.82;6.90;;;;;;;13.57;100.00;101658.94;6159491;28;20416;-90
2023/05/31 07:03:16;;;;;;;12.50;6.60;;;;;;;13.70;100.00;101668.44;6159882;28;20054;-90
2023/05/31 07:06:18;;;;;;;14.55;6.90;;;;;;;13.75;100.00;101664.56;6143990;28;20085;-90
2023/05/31 07:09:25;;;;;;;9.20;6.38;;;;;;;13.80;100.00;101664.22;6144952;28;20050;-90
2023/05/31 07:12:29;;;;;;;11.23;6.30;;;;;;;13.88;100.00;101667.06;6147217;28;20189;-90
2023/05/31 07:15:31;;;;;;;12.73;5.80;;;;;;;14.05;100.00;101662.38;6154712;28;20071;-90
2023/05/31 07:18:33;;;;;;;10.30;6.03;;;;;;;14.10;100.00;101660.25;6133247;28;20090;-90
2023/05/31 07:21:37;;;;;;;8.90;5.78;;;;;;;14.14;100.00;101665.13;6156705;28;20038;-90
2023/05/31 07:24:39;;;;;;;9.68;5.80;;;;;;;14.24;100.00;101665.25;6228008;28;20068;-90
2023/05/31 07:27:41;;;;;;;13.77;6.00;;;;;;;14.38;100.00;101664.19;6256129;28;20052;-90
2023/05/31 07:30:43;;;;;;;9.75;5.72;;;;;;;14.43;100.00;101667.25;6246876;28;20502;-90
2023/05/31 07:33:45;;;;;;;11.82;5.70;;;;;;;14.52;100.00;101666.56;6245961;28;20041;-90
2023/05/31 07:36:47;;;;;;;10.15;5.72;;;;;;;14.64;100.00;101657.00;6245076;28;20631;-90
2023/05/31 07:39:49;;;;;;;9.70;4.40;;;;;;;14.67;100.00;101664.56;6248140;28;20411;-90
2023/05/31 07:42:51;;;;;;;9.65;5.57;;;;;;;14.78;100.00;101654.16;6240503;28;20048;-90
2023/05/31 07:45:56;;;;;;;14.82;5.40;;;;;;;14.95;100.00;101651.97;6251796;28;20045;-90
2023/05/31 07:48:58;;;;;;;8.52;4.80;;;;;;;15.11;100.00;101659.41;6247450;28;20478;-90
2023/05/31 07:52:01;;;;;;;9.10;5.13;;;;;;;15.19;100.00;101649.19;6262496;28;20041;-91
2023/05/31 07:55:03;;;;;;;10.30;5.30;;;;;;;15.32;100.00;101656.84;6250837;28;20148;-90
2023/05/31 07:58:07;;;;;;;10.27;4.55;;;;;;;15.39;100.00;101656.22;6242019;28;20054;-90
2023/05/31 08:01:09;;;;;;;11.30;5.35;;;;;;;15.40;100.00;101647.47;6246048;28;20095;-90
2023/05/31 08:04:11;;;;;;;8.32;4.38;;;;;;;15.47;100.00;101653.81;6243292;28;20037;-90
2023/05/31 08:07:13;;;;;;;13.13;5.03;;;;;;;15.64;100.00;101649.81;6248023;28;20403;-90
2023/05/31 08:10:16;;;;;;;9.95;4.57;;;;;;;15.83;100.00;101650.94;6225790;28;20072;-90
2023/05/31 08:13:18;;;;;;;9.77;3.90;;;;;;;15.95;100.00;101652.53;6250039;28;20040;-90
2023/05/31 08:16:20;;;;;;;7.40;4.03;;;;;;;16.00;100.00;101642.53;6242274;28;20499;-90
2023/05/31 08:19:23;;;;;;;8.43;4.40;;;;;;;16.09;100.00;101646.13;6240590;28;20048;-90
2023/05/31 08:22:24;;;;;;;7.95;4.10;;;;;;;16.13;100.00;101631.88;6231200;28;20045;-90
2023/05/31 08:25:27;;;;;;;6.13;3.95;;;;;;;16.22;100.00;101633.69;6238207;28;20037;-91
2023/05/31 08:28:31;;;;;;;6.97;3.95;;;;;;;16.32;100.00;101629.34;6236885;28;20523;-91
2023/05/31 08:31:34;;;;;;;7.15;3.95;;;;;;;16.45;100.00;101629.13;6251052;28;20493;-91
2023/05/31 08:34:36;;;;;;;9.25;4.22;;;;;;;16.57;100.00;101624.59;6245481;28;20077;-91
2023/05/31 08:37:42;;;;;;;8.20;4.10;;;;;;;16.71;100.00;101629.44;6242066;28;20084;-90
2023/05/31 08:40:44;;;;;;;9.88;3.80;;;;;;;16.85;100.00;101622.25;6244219;28;20048;-90
2023/05/31 08:43:46;;;;;;;9.13;3.97;;;;;;;17.03;100.00;101625.00;6258873;28;20317;-90
2023/05/31 08:46:48;;;;;;;10.13;3.95;;;;;;;17.18;100.00;101626.25;6230205;28;20183;-91
2023/05/31 08:49:52;;;;;;;9.05;4.40;;;;;;;17.24;100.00;101625.69;6251844;28;20045;-91
2023/05/31 08:52:56;;;;;;;10.20;4.25;;;;;;;17.29;100.00;101618.28;6246301;28;20071;-91
2023/05/31 08:56:01;;;;;;;7.43;4.28;;;;;;;17.43;100.00;101617.00;6271553;28;20044;-91
2023/05/31 08:59:03;;;;;;;10.95;4.45;;;;;;;17.49;100.00;101613.00;6253441;28;20075;-91
2023/05/31 09:02:08;;;;;;;11.85;4.18;;;;;;;17.65;100.00;101613.28;6238632;28;20045;-91
2023/05/31 09:05:10;;;;;;;12.30;4.15;;;;;;;17.74;100.00;101612.44;6250637;28;20071;-91
2023/05/31 09:08:13;;;;;;;8.18;4.10;;;;;;;17.80;100.00;101603.22;6251143;28;20041;-92
2023/05/31 09:11:15;;;;;;;6.72;4.03;;;;;;;17.85;100.00;101601.00;6243149;28;20041;-92
2023/05/31 09:14:17;;;;;;;6.97;3.55;;;;;;;17.91;100.00;101603.03;6253144;28;20448;-91
2023/05/31 09:17:19;;;;;;;6.03;3.67;;;;;;;18.00;100.00;101596.94;6246651;28;20138;-91
2023/05/31 09:20:32;;;;;;;7.30;4.10;;;;;;;18.24;100.00;101599.06;6243694;28;20042;-91
2023/05/31 09:23:34;;;;;;;10.18;5.22;;;;;;;18.34;100.00;101599.00;6246111;28;20038;-92
2023/05/31 09:26:48;;;;;;;10.48;3.58;;;;;;;18.39;100.00;101595.97;6245762;28;20079;-92
2023/05/31 09:29:54;;;;;;;7.75;3.90;;;;;;;18.44;100.00;101588.47;6246988;28;20045;-92
2023/05/31 09:32:56;;;;;;;6.10;3.60;;;;;;;18.52;100.00;101593.81;6246203;28;20130;-92
2023/05/31 09:35:58;;;;;;;10.57;4.05;;;;;;;18.62;100.00;101585.88;6239235;28;20510;-92
2023/05/31 09:39:05;;;;;;;8.80;3.63;;;;;;;18.72;100.00;101592.69;6245545;28;20046;-92
2023/05/31 09:42:12;;;;;;;9.80;3.63;;;;;;;18.95;100.00;101592.28;6248468;28;20067;-89
2023/05/31 09:45:16;;;;;;;7.53;3.60;;;;;;;18.99;100.00;101592.84;6248671;28;20041;-91
2023/05/31 09:48:18;;;;;;;8.32;3.25;;;;;;;19.10;100.00;101582.91;6242291;28;20083;-92
2023/05/31 09:51:26;;;;;;;9.02;3.97;;;;;;;19.21;100.00;101588.94;6246451;28;20468;-91
2023/05/31 09:54:28;;;;;;;5.47;3.80;;;;;;;19.31;100.00;101581.78;6250082;28;20053;-91
2023/05/31 09:57:39;;;;;;;12.32;3.83;;;;;;;19.33;100.00;101579.84;6245332;28;20916;-92
2023/05/31 10:00:48;;;;;;;8.23;3.40;;;;;;;19.32;100.00;101578.16;6245415;28;20037;-92
2023/05/31 10:03:50;;;;;;;8.50;3.45;;;;;;;19.44;100.00;101587.44;6237743;28;20172;-92
2023/05/31 10:06:52;;;;;;;6.72;2.45;;;;;;;19.62;100.00;101569.03;6232807;28;20064;-92
2023/05/31 10:09:55;;;;;;;8.30;2.70;;;;;;;19.74;100.00;101582.75;6244283;28;20053;-92
2023/05/31 10:13:02;;;;;;;8.32;3.10;;;;;;;19.85;100.00;101577.25;6242444;28;20045;-92
2023/05/31 10:16:07;;;;;;;6.95;2.65;;;;;;;20.05;100.00;101569.94;6253535;28;20060;-93
2023/05/31 10:19:18;;;;;;;4.60;2.35;;;;;;;20.29;100.00;101571.84;6226543;28;20045;-93
2023/05/31 10:22:20;;;;;;;4.85;2.28;;;;;;;20.58;100.00;101566.19;6237876;28;20132;-92
2023/05/31 10:25:29;;;;;;;5.88;2.60;;;;;;;20.79;100.00;101567.53;6240343;28;20041;-93
2023/05/31 10:28:37;;;;;;;6.10;2.42;;;;;;;20.84;100.00;101563.44;6243671;28;20594;-93
2023/05/31 10:31:45;;;;;;;7.47;2.67;;;;;;;20.92;100.00;101561.78;6243390;28;20045;-93
2023/05/31 10:34:54;;;;;;;6.88;2.35;;;;;;;21.10;100.00;101556.38;6244500;28;20049;-93
2023/05/31 10:37:57;;;;;;;5.43;2.47;;;;;;;21.26;100.00;101554.53;6247887;28;20033;-93
2023/05/31 10:41:06;;;;;;;7.35;2.58;;;;;;;21.27;100.00;101556.19;6249529;28;20045;-92
2023/05/31 10:44:17;;;;;;;6.75;2.50;;;;;;;21.24;100.00;101558.34;6245504;28;20071;-93
2023/05/31 10:47:26;;;;;;;4.95;2.42;;;;;;;21.28;100.00;101552.56;6240008;28;20052;-93
2023/05/31 10:50:28;;;;;;;5.25;2.38;;;;;;;21.37;100.00;101542.84;6234811;28;20049;-93
2023/05/31 10:53:37;;;;;;;5.55;2.67;;;;;;;21.48;100.00;101544.34;6249199;28;20140;-93
2023/05/31 10:56:39;;;;;;;4.80;2.83;;;;;;;21.55;100.00;101541.88;6254995;28;20044;-94
2023/05/31 10:59:47;;;;;;;5.93;2.53;;;;;;;21.51;100.00;101533.47;6249744;28;21339;-91
2023/05/31 11:02:58;;;;;;;6.70;2.92;;;;;;;21.56;100.00;101533.78;6244480;28;20069;-93
2023/05/31 11:06:06;;;;;;;7.32;2.60;;;;;;;21.67;100.00;101524.72;6250384;28;20042;-93
2023/05/31 11:09:17;;;;;;;6.10;2.30;;;;;;;21.83;100.00;101523.81;6244257;28;20045;-93
2023/05/31 11:12:35;;;;;;;6.15;2.45;;;;;;;21.90;100.00;101522.16;6243665;28;20124;-90
2023/05/31 11:15:45;;;;;;;6.95;2.40;;;;;;;22.01;100.00;101519.16;6214277;28;20176;-90
2023/05/31 11:19:02;;;;;;;3.67;2.40;;;;;;;22.12;96.09;101513.47;6259707;28;20052;-93
2023/05/31 11:22:07;;;;;;;;;;;;;;;22.26;96.23;101513.75;6226027;28;20403;-89
2023/05/31 11:25:20;;;;;;;6.53;2.67;;;;;;;22.26;95.63;101503.19;6232093;28;20248;-92
2023/05/31 11:28:25;;;;;;;3.97;2.15;;;;;;;22.20;90.72;101509.19;6242818;28;20605;-93
2023/05/31 11:31:49;;;;;;;7.75;2.67;;;;;;;22.36;96.79;101509.09;6246833;28;20041;-92
2023/05/31 11:34:57;;;;;;;3.85;2.30;;;;;;;22.58;95.38;101504.78;6240003;28;20049;-92
2023/05/31 11:38:01;;;;;;;4.13;2.45;;;;;;;22.70;87.18;101506.03;6242157;28;20412;-92
2023/05/31 11:41:04;;;;;;;4.70;2.40;;;;;;;22.71;90.50;101494.47;6245314;28;20033;-93
2023/05/31 11:44:10;;;;;;;7.00;2.20;;;;;;;22.71;92.85;101502.41;6224847;28;20128;-93
2023/05/31 11:47:26;;;;;;;5.30;2.45;;;;;;;22.75;92.51;101489.66;6244392;28;20033;-93
2023/05/31 11:50:28;;;;;;;2.63;2.35;;;;;;;22.92;94.07;101488.50;6237319;28;20403;-92
2023/05/31 11:53:30;;;;;;;4.82;2.42;;;;;;;23.32;91.03;101486.50;6243186;28;20118;-91
2023/05/31 11:56:38;;;;;;;6.32;2.10;;;;;;;23.50;85.30;101487.97;6243126;28;20048;-91
2023/05/31 11:59:41;;;;;;;4.60;2.15;;;;;;;23.28;82.48;101487.88;6235572;28;20436;-92
2023/05/31 12:02:44;;;;;;;4.38;1.90;;;;;;;22.88;86.16;101481.13;6208411;28;20876;-93
2023/05/31 12:05:51;;;;;;;4.68;2.25;;;;;;;22.55;80.31;101474.31;6246071;28;20040;-93
2023/05/31 12:08:54;;;;;;;4.15;2.05;;;;;;;22.49;87.68;101480.28;6247483;28;20044;-94
2023/05/31 12:11:56;;;;;;;5.82;2.00;;;;;;;22.84;88.33;101467.47;6258900;28;20041;-92
2023/05/31 12:14:58;;;;;;;6.25;2.15;;;;;;;23.22;86.09;101467.47;6242818;28;20049;-93
2023/05/31 12:18:00;;;;;;;5.82;1.90;;;;;;;23.65;81.58;101463.19;6245191;28;20083;-93
2023/05/31 12:21:11;;;;;;;5.57;2.05;;;;;;;24.11;86.02;101456.78;6245155;28;20134;-93
2023/05/31 12:24:15;;;;;;;;;;;;;;;24.64;80.94;101451.19;6242188;28;20135;-93
2023/05/31 12:27:19;;;;;;;3.50;1.92;;;;;;;25.04;72.57;101451.47;6243512;28;19924;-92
2023/05/31 12:30:30;;;;;;;5.07;2.28;;;;;;;25.17;72.80;101442.81;6239622;28;20045;-93
2023/05/31 12:34:11;;;;;;;5.88;2.33;;;;;;;25.19;74.77;101441.59;6238164;28;20510;-93
2023/05/31 12:37:13;;;;;;;3.70;2.10;;;;;;;25.07;67.92;101438.69;6160503;28;20548;-93
2023/05/31 12:40:22;;;;;;;3.47;1.85;;;;;;;24.95;65.28;101432.28;6142646;28;20047;-93
2023/05/31 12:43:25;;;;;;;3.90;2.10;;;;;;;25.02;65.52;101437.59;6157876;28;20054;-93
2023/05/31 12:46:27;;;;;;;4.43;2.25;;;;;;;25.19;68.27;101432.84;6162716;28;20042;-93
2023/05/31 12:49:31;;;;;;;2.67;2.13;;;;;;;25.24;65.48;101423.31;6143078;28;20061;-93
2023/05/31 12:52:35;;;;;;;4.38;1.85;;;;;;;25.42;64.96;101422.78;6160371;28;20062;-92
2023/05/31 12:55:37;;;;;;;2.38;1.65;;;;;;;25.69;67.41;101413.09;6156340;28;20539;-92
2023/05/31 12:58:38;;;;;;;3.53;1.90;;;;;;;25.93;58.99;101419.69;6160284;28;20057;-93
2023/05/31 13:01:41;;;;;;;4.25;1.67;;;;;;;25.98;56.61;101427.06;6156175;28;20135;-93
2023/05/31 13:04:43;;;;;;;3.83;1.90;;;;;;;26.11;60.01;101421.78;6157674;28;20047;-92
2023/05/31 13:07:46;;;;;;;4.28;1.95;;;;;;;26.15;56.59;101427.50;6134587;28;20168;-89
2023/05/31 13:10:48;;;;;;;3.03;1.70;;;;;;;25.91;57.72;101419.09;6158262;28;20043;-93
2023/05/31 13:13:50;;;;;;;2.75;1.70;;;;;;;25.91;58.98;101421.75;6201449;28;20053;-93
2023/05/31 13:16:52;;;;;;;3.70;2.22;;;;;;;25.92;59.34;101407.47;6253807;28;20037;-93
2023/05/31 13:19:55;;;;;;;5.57;2.20;;;;;;;26.03;59.67;101410.53;6246168;28;20050;-93
2023/05/31 13:23:12;;;;;;;5.05;1.65;;;;;;;26.08;54.43;101408.91;6246028;28;20036;-93
2023/05/31 13:26:14;;;;;;;4.90;1.50;;;;;;;26.07;55.24;101409.13;6250926;28;20042;-93
2023/05/31 13:29:16;;;;;;;6.00;2.10;;;;;;;26.09;56.03;101399.94;6252146;28;20040;-92
2023/05/31 13:32:19;;;;;;;4.13;1.88;;;;;;;26.23;53.16;101398.09;6256001;28;20123;-94
2023/05/31 13:35:20;;;;;;;4.15;1.83;;;;;;;26.37;58.53;101397.09;6250043;28;20063;-93
2023/05/31 13:38:25;;;;;;;3.47;1.85;;;;;;;26.60;53.78;101396.69;6252178;28;20120;-91
2023/05/31 13:41:28;;;;;;;4.68;2.10;;;;;;;26.81;54.79;101385.03;6247876;28;20088;-93
2023/05/31 13:44:30;;;;;;;3.83;1.85;;;;;;;27.03;54.01;101398.03;6248818;28;20033;-91
2023/05/31 13:47:32;;;;;;;5.70;2.05;;;;;;;27.08;57.36;101387.63;6253204;28;20651;-92
2023/05/31 13:50:37;;;;;;;4.25;2.22;;;;;;;27.25;53.78;101382.66;6249889;28;20396;-92
2023/05/31 13:53:39;;;;;;;3.15;1.58;;;;;;;27.22;49.54;101375.91;6258707;28;20041;-92
2023/05/31 13:56:41;;;;;;;2.80;1.63;;;;;;;27.20;51.16;101375.31;6250431;28;20072;-92
2023/05/31 13:59:43;;;;;;;4.32;1.90;;;;;;;27.15;50.26;101376.94;6245009;28;20042;-91
2023/05/31 14:02:44;;;;;;;3.00;1.70;;;;;;;26.98;48.32;101363.28;6246049;28;20068;-91
2023/05/31 14:05:49;;;;;;;3.80;1.73;;;;;;;27.01;50.29;101350.41;6244087;28;20409;-92